sensor_id;sensor_type;location;lat;lon;timestamp;pressure;altitude;pressure_sealevel;temperature
42197;BMP280;27866;48.146;17.098;2022-10-16T00:02:33;99966.97;;;16.59
42197;BMP280;27866;48.146;17.098;2022-10-16T00:06:44;99967.25;;;16.56
42197;BMP280;27866;48.146;17.098;2022-10-16T00:11:04;99969.72;;;16.58
42197;BMP280;27866;48.146;17.098;2022-10-16T00:15:16;99969.44;;;16.52
42197;BMP280;27866;48.146;17.098;2022-10-16T00:19:27;99969.97;;;16.46
42197;BMP280;27866;48.146;17.098;2022-10-16T00:23:38;99972.44;;;16.38
42197;BMP280;27866;48.146;17.098;2022-10-16T00:27:49;99985.09;;;16.33
42197;BMP280;27866;48.146;17.098;2022-10-16T00:32:00;99977.09;;;16.25
42197;BMP280;27866;48.146;17.098;2022-10-16T00:36:15;99975.97;;;16.19
42197;BMP280;27866;48.146;17.098;2022-10-16T00:40:26;99979.13;;;16.13
42197;BMP280;27866;48.146;17.098;2022-10-16T00:44:53;99991.19;;;16.05
42197;BMP280;27866;48.146;17.098;2022-10-16T00:49:16;99984.97;;;15.96
42197;BMP280;27866;48.146;17.098;2022-10-16T00:53:28;99987.16;;;15.92
42197;BMP280;27866;48.146;17.098;2022-10-16T00:57:39;99991.25;;;15.85
42197;BMP280;27866;48.146;17.098;2022-10-16T01:01:52;99995.88;;;15.81
42197;BMP280;27866;48.146;17.098;2022-10-16T01:10:57;99998.88;;;15.77
42197;BMP280;27866;48.146;17.098;2022-10-16T01:20:20;100007.53;;;15.78
42197;BMP280;27866;48.146;17.098;2022-10-16T01:24:48;100000.38;;;15.79
42197;BMP280;27866;48.146;17.098;2022-10-16T01:33:40;99991.75;;;15.79
42197;BMP280;27866;48.146;17.098;2022-10-16T01:42:22;99996.56;;;15.83
42197;BMP280;27866;48.146;17.098;2022-10-16T01:46:39;100011.88;;;15.88
42197;BMP280;27866;48.146;17.098;2022-10-16T01:51:10;100023.16;;;15.88
42197;BMP280;27866;48.146;17.098;2022-10-16T01:55:29;100012.56;;;15.90
42197;BMP280;27866;48.146;17.098;2022-10-16T01:59:51;100015.59;;;15.94
42197;BMP280;27866;48.146;17.098;2022-10-16T02:04:38;100013.44;;;15.99
42197;BMP280;27866;48.146;17.098;2022-10-16T02:08:50;100021.00;;;16.02
42197;BMP280;27866;48.146;17.098;2022-10-16T02:13:26;100006.16;;;16.03
42197;BMP280;27866;48.146;17.098;2022-10-16T02:17:38;100007.41;;;16.08
42197;BMP280;27866;48.146;17.098;2022-10-16T02:22:05;100011.06;;;16.25
42197;BMP280;27866;48.146;17.098;2022-10-16T02:26:45;100017.03;;;16.46
42197;BMP280;27866;48.146;17.098;2022-10-16T02:31:03;100004.13;;;16.63
42197;BMP280;27866;48.146;17.098;2022-10-16T02:35:18;100011.31;;;16.70
42197;BMP280;27866;48.146;17.098;2022-10-16T02:39:29;100006.19;;;16.78
42197;BMP280;27866;48.146;17.098;2022-10-16T02:43:41;100009.56;;;16.89
42197;BMP280;27866;48.146;17.098;2022-10-16T02:47:52;100023.75;;;16.96
42197;BMP280;27866;48.146;17.098;2022-10-16T02:52:04;100027.06;;;16.97
42197;BMP280;27866;48.146;17.098;2022-10-16T02:56:15;100028.03;;;17.06
42197;BMP280;27866;48.146;17.098;2022-10-16T03:00:26;100025.66;;;17.12
42197;BMP280;27866;48.146;17.098;2022-10-16T03:04:37;100024.56;;;17.14
42197;BMP280;27866;48.146;17.098;2022-10-16T03:08:48;100016.56;;;17.16
42197;BMP280;27866;48.146;17.098;2022-10-16T03:12:59;100016.44;;;17.17
42197;BMP280;27866;48.146;17.098;2022-10-16T03:17:10;100026.78;;;17.19
42197;BMP280;27866;48.146;17.098;2022-10-16T03:21:22;100033.66;;;17.11
42197;BMP280;27866;48.146;17.098;2022-10-16T03:25:33;100032.28;;;17.07
42197;BMP280;27866;48.146;17.098;2022-10-16T03:29:44;100039.28;;;17.15
42197;BMP280;27866;48.146;17.098;2022-10-16T03:33:55;100044.13;;;17.20
42197;BMP280;27866;48.146;17.098;2022-10-16T03:38:06;100055.69;;;17.17
42197;BMP280;27866;48.146;17.098;2022-10-16T03:42:17;100067.38;;;17.13
42197;BMP280;27866;48.146;17.098;2022-10-16T03:46:28;100056.38;;;17.01
42197;BMP280;27866;48.146;17.098;2022-10-16T03:50:40;100070.19;;;16.74
42197;BMP280;27866;48.146;17.098;2022-10-16T03:54:51;100069.91;;;16.58
42197;BMP280;27866;48.146;17.098;2022-10-16T03:59:02;100087.78;;;16.53
42197;BMP280;27866;48.146;17.098;2022-10-16T04:03:14;100089.44;;;16.54
42197;BMP280;27866;48.146;17.098;2022-10-16T04:07:25;100096.47;;;16.63
42197;BMP280;27866;48.146;17.098;2022-10-16T04:11:36;100093.59;;;16.66
42197;BMP280;27866;48.146;17.098;2022-10-16T04:15:47;100091.97;;;16.74
42197;BMP280;27866;48.146;17.098;2022-10-16T04:19:58;100095.25;;;16.76
42197;BMP280;27866;48.146;17.098;2022-10-16T04:24:09;100094.19;;;16.79
42197;BMP280;27866;48.146;17.098;2022-10-16T04:28:22;100097.13;;;16.85
42197;BMP280;27866;48.146;17.098;2022-10-16T04:32:33;100087.91;;;16.90
42197;BMP280;27866;48.146;17.098;2022-10-16T04:36:47;100097.81;;;16.87
42197;BMP280;27866;48.146;17.098;2022-10-16T04:41:00;100098.72;;;16.77
42197;BMP280;27866;48.146;17.098;2022-10-16T04:45:11;100096.63;;;16.62
42197;BMP280;27866;48.146;17.098;2022-10-16T04:49:22;100103.75;;;16.51
42197;BMP280;27866;48.146;17.098;2022-10-16T04:53:33;100105.03;;;16.36
42197;BMP280;27866;48.146;17.098;2022-10-16T04:57:45;100111.75;;;16.29
42197;BMP280;27866;48.146;17.098;2022-10-16T05:01:56;100123.44;;;16.25
42197;BMP280;27866;48.146;17.098;2022-10-16T05:06:07;100121.38;;;16.29
42197;BMP280;27866;48.146;17.098;2022-10-16T05:10:19;100116.31;;;16.37
42197;BMP280;27866;48.146;17.098;2022-10-16T05:14:30;100113.56;;;16.38
42197;BMP280;27866;48.146;17.098;2022-10-16T05:18:41;100128.28;;;16.30
42197;BMP280;27866;48.146;17.098;2022-10-16T05:22:52;100134.41;;;16.20
42197;BMP280;27866;48.146;17.098;2022-10-16T05:27:03;100129.19;;;16.20
42197;BMP280;27866;48.146;17.098;2022-10-16T05:31:14;100137.06;;;16.29
42197;BMP280;27866;48.146;17.098;2022-10-16T05:35:25;100151.78;;;16.30
42197;BMP280;27866;48.146;17.098;2022-10-16T05:39:40;100140.00;;;16.35
42197;BMP280;27866;48.146;17.098;2022-10-16T05:43:52;100139.47;;;16.41
42197;BMP280;27866;48.146;17.098;2022-10-16T05:48:04;100151.03;;;16.48
42197;BMP280;27866;48.146;17.098;2022-10-16T05:52:15;100155.41;;;16.67
42197;BMP280;27866;48.146;17.098;2022-10-16T05:56:26;100163.56;;;16.73
42197;BMP280;27866;48.146;17.098;2022-10-16T06:00:37;100169.31;;;16.67
42197;BMP280;27866;48.146;17.098;2022-10-16T06:04:48;100181.81;;;16.64
42197;BMP280;27866;48.146;17.098;2022-10-16T06:08:59;100192.88;;;16.77
42197;BMP280;27866;48.146;17.098;2022-10-16T06:13:12;100196.88;;;17.10
42197;BMP280;27866;48.146;17.098;2022-10-16T06:17:23;100196.53;;;17.51
42197;BMP280;27866;48.146;17.098;2022-10-16T06:21:34;100199.19;;;17.87
42197;BMP280;27866;48.146;17.098;2022-10-16T06:25:46;100195.03;;;18.03
42197;BMP280;27866;48.146;17.098;2022-10-16T06:29:57;100186.63;;;18.98
42197;BMP280;27866;48.146;17.098;2022-10-16T06:34:10;100199.38;;;19.10
42197;BMP280;27866;48.146;17.098;2022-10-16T06:38:22;100208.69;;;19.05
42197;BMP280;27866;48.146;17.098;2022-10-16T06:42:33;100212.75;;;18.64
42197;BMP280;27866;48.146;17.098;2022-10-16T06:46:44;100226.34;;;18.05
42197;BMP280;27866;48.146;17.098;2022-10-16T06:55:17;100241.69;;;17.91
42197;BMP280;27866;48.146;17.098;2022-10-16T06:59:28;100240.16;;;17.88
42197;BMP280;27866;48.146;17.098;2022-10-16T07:03:41;100254.19;;;17.78
42197;BMP280;27866;48.146;17.098;2022-10-16T07:07:52;100249.94;;;17.86
42197;BMP280;27866;48.146;17.098;2022-10-16T07:12:04;100240.50;;;19.88
42197;BMP280;27866;48.146;17.098;2022-10-16T07:16:21;100263.13;;;19.81
42197;BMP280;27866;48.146;17.098;2022-10-16T07:20:32;100257.41;;;19.16
42197;BMP280;27866;48.146;17.098;2022-10-16T07:24:43;100265.13;;;18.92
42197;BMP280;27866;48.146;17.098;2022-10-16T07:28:55;100254.66;;;18.83
42197;BMP280;27866;48.146;17.098;2022-10-16T07:33:07;100265.19;;;19.35
42197;BMP280;27866;48.146;17.098;2022-10-16T07:37:18;100258.97;;;19.10
42197;BMP280;27866;48.146;17.098;2022-10-16T07:41:30;100273.88;;;19.09
42197;BMP280;27866;48.146;17.098;2022-10-16T07:45:48;100263.03;;;19.21
42197;BMP280;27866;48.146;17.098;2022-10-16T07:49:59;100269.88;;;19.41
42197;BMP280;27866;48.146;17.098;2022-10-16T07:54:11;100273.25;;;19.76
42197;BMP280;27866;48.146;17.098;2022-10-16T07:58:22;100273.41;;;19.92
42197;BMP280;27866;48.146;17.098;2022-10-16T08:02:33;100283.78;;;20.10
42197;BMP280;27866;48.146;17.098;2022-10-16T08:06:44;100264.34;;;20.20
42197;BMP280;27866;48.146;17.098;2022-10-16T08:10:55;100262.84;;;20.60
42197;BMP280;27866;48.146;17.098;2022-10-16T08:15:07;100267.63;;;21.05
42197;BMP280;27866;48.146;17.098;2022-10-16T08:19:18;100267.66;;;22.17
42197;BMP280;27866;48.146;17.098;2022-10-16T08:23:29;100269.16;;;22.81
42197;BMP280;27866;48.146;17.098;2022-10-16T08:27:40;100267.75;;;23.90
42197;BMP280;27866;48.146;17.098;2022-10-16T08:31:51;100271.19;;;24.20
42197;BMP280;27866;48.146;17.098;2022-10-16T08:36:04;100273.84;;;26.65
42197;BMP280;27866;48.146;17.098;2022-10-16T08:40:25;100283.56;;;24.49
42197;BMP280;27866;48.146;17.098;2022-10-16T08:49:13;100298.91;;;21.73
42197;BMP280;27866;48.146;17.098;2022-10-16T08:53:35;100308.22;;;21.28
42197;BMP280;27866;48.146;17.098;2022-10-16T08:57:49;100314.31;;;21.61
42197;BMP280;27866;48.146;17.098;2022-10-16T09:02:00;100298.09;;;28.01
42197;BMP280;27866;48.146;17.098;2022-10-16T09:15:55;100278.75;;;34.30
42197;BMP280;27866;48.146;17.098;2022-10-16T09:24:37;100287.66;;;26.54
42197;BMP280;27866;48.146;17.098;2022-10-16T09:28:48;100282.88;;;25.19
42197;BMP280;27866;48.146;17.098;2022-10-16T09:33:03;100283.47;;;24.35
42197;BMP280;27866;48.146;17.098;2022-10-16T09:37:18;100297.66;;;23.61
42197;BMP280;27866;48.146;17.098;2022-10-16T09:41:37;100290.16;;;23.35
42197;BMP280;27866;48.146;17.098;2022-10-16T09:46:07;100290.25;;;23.12
42197;BMP280;27866;48.146;17.098;2022-10-16T09:50:26;100302.66;;;22.73
42197;BMP280;27866;48.146;17.098;2022-10-16T09:54:37;100303.81;;;22.78
42197;BMP280;27866;48.146;17.098;2022-10-16T09:58:57;100314.38;;;22.78
42197;BMP280;27866;48.146;17.098;2022-10-16T10:03:12;100309.41;;;22.91
42197;BMP280;27866;48.146;17.098;2022-10-16T10:07:37;100300.16;;;23.10
42197;BMP280;27866;48.146;17.098;2022-10-16T10:11:57;100309.72;;;23.19
42197;BMP280;27866;48.146;17.098;2022-10-16T10:16:09;100305.72;;;23.23
42197;BMP280;27866;48.146;17.098;2022-10-16T10:20:35;100298.66;;;23.15
42197;BMP280;27866;48.146;17.098;2022-10-16T10:57:09;100291.78;;;24.10
42197;BMP280;27866;48.146;17.098;2022-10-16T11:01:50;100282.03;;;24.33
42197;BMP280;27866;48.146;17.098;2022-10-16T11:07:13;100291.13;;;24.74
42197;BMP280;27866;48.146;17.098;2022-10-16T11:11:47;100284.63;;;25.12
42197;BMP280;27866;48.146;17.098;2022-10-16T11:16:15;100284.47;;;28.79
42197;BMP280;27866;48.146;17.098;2022-10-16T11:20:33;100276.63;;;32.49
42197;BMP280;27866;48.146;17.098;2022-10-16T11:25:04;100268.81;;;32.98
42197;BMP280;27866;48.146;17.098;2022-10-16T11:29:26;100255.69;;;34.33
42197;BMP280;27866;48.146;17.098;2022-10-16T11:38:55;100253.66;;;34.99
42197;BMP280;27866;48.146;17.098;2022-10-16T11:43:42;100250.06;;;35.63
42197;BMP280;27866;48.146;17.098;2022-10-16T11:48:00;100231.50;;;36.59
42197;BMP280;27866;48.146;17.098;2022-10-16T11:56:47;100230.88;;;36.52
42197;BMP280;27866;48.146;17.098;2022-10-16T12:09:42;100228.75;;;36.84
42197;BMP280;27866;48.146;17.098;2022-10-16T12:14:39;100218.69;;;36.24
42197;BMP280;27866;48.146;17.098;2022-10-16T12:19:10;100213.84;;;36.77
42197;BMP280;27866;48.146;17.098;2022-10-16T12:23:21;100227.25;;;37.88
42197;BMP280;27866;48.146;17.098;2022-10-16T12:27:33;100215.81;;;38.84
42197;BMP280;27866;48.146;17.098;2022-10-16T12:31:48;100205.53;;;37.69
42197;BMP280;27866;48.146;17.098;2022-10-16T12:36:32;100205.50;;;38.43
42197;BMP280;27866;48.146;17.098;2022-10-16T12:40:46;100200.72;;;37.26
42197;BMP280;27866;48.146;17.098;2022-10-16T12:45:34;100204.91;;;36.21
42197;BMP280;27866;48.146;17.098;2022-10-16T12:49:52;100202.69;;;36.69
42197;BMP280;27866;48.146;17.098;2022-10-16T12:54:35;100207.88;;;38.25
42197;BMP280;27866;48.146;17.098;2022-10-16T13:08:54;100203.38;;;36.04
42197;BMP280;27866;48.146;17.098;2022-10-16T13:13:57;100210.88;;;32.18
42197;BMP280;27866;48.146;17.098;2022-10-16T13:23:06;100206.84;;;31.70
42197;BMP280;27866;48.146;17.098;2022-10-16T13:27:48;100213.22;;;31.69
42197;BMP280;27866;48.146;17.098;2022-10-16T13:32:11;100213.13;;;30.82
42197;BMP280;27866;48.146;17.098;2022-10-16T13:36:27;100217.06;;;30.55
42197;BMP280;27866;48.146;17.098;2022-10-16T13:45:22;100222.66;;;31.54
42197;BMP280;27866;48.146;17.098;2022-10-16T13:49:33;100220.47;;;31.10
42197;BMP280;27866;48.146;17.098;2022-10-16T13:53:45;100228.72;;;30.37
42197;BMP280;27866;48.146;17.098;2022-10-16T13:58:16;100223.50;;;32.68
42197;BMP280;27866;48.146;17.098;2022-10-16T14:02:34;100221.81;;;33.56
42197;BMP280;27866;48.146;17.098;2022-10-16T14:06:50;100221.69;;;34.12
42197;BMP280;27866;48.146;17.098;2022-10-16T14:11:02;100216.75;;;33.32
42197;BMP280;27866;48.146;17.098;2022-10-16T14:15:18;100228.28;;;32.77
42197;BMP280;27866;48.146;17.098;2022-10-16T14:19:30;100226.06;;;31.78
42197;BMP280;27866;48.146;17.098;2022-10-16T14:23:42;100228.09;;;31.47
42197;BMP280;27866;48.146;17.098;2022-10-16T14:28:13;100236.53;;;30.38
42197;BMP280;27866;48.146;17.098;2022-10-16T14:32:25;100236.84;;;29.33
42197;BMP280;27866;48.146;17.098;2022-10-16T14:36:36;100235.69;;;28.73
42197;BMP280;27866;48.146;17.098;2022-10-16T14:40:51;100235.00;;;28.08
42197;BMP280;27866;48.146;17.098;2022-10-16T14:45:09;100235.31;;;27.80
42197;BMP280;27866;48.146;17.098;2022-10-16T14:49:22;100246.22;;;27.46
42197;BMP280;27866;48.146;17.098;2022-10-16T14:53:34;100238.88;;;27.15
42197;BMP280;27866;48.146;17.098;2022-10-16T14:57:45;100239.91;;;26.87
42197;BMP280;27866;48.146;17.098;2022-10-16T15:01:57;100234.56;;;26.60
42197;BMP280;27866;48.146;17.098;2022-10-16T15:06:13;100247.38;;;26.30
42197;BMP280;27866;48.146;17.098;2022-10-16T15:10:27;100249.91;;;26.04
42197;BMP280;27866;48.146;17.098;2022-10-16T15:14:38;100251.06;;;25.95
42197;BMP280;27866;48.146;17.098;2022-10-16T15:18:49;100254.44;;;25.69
42197;BMP280;27866;48.146;17.098;2022-10-16T15:23:14;100263.94;;;25.50
42197;BMP280;27866;48.146;17.098;2022-10-16T15:27:26;100269.34;;;25.28
42197;BMP280;27866;48.146;17.098;2022-10-16T15:31:37;100271.09;;;25.07
42197;BMP280;27866;48.146;17.098;2022-10-16T15:35:50;100277.28;;;24.86
42197;BMP280;27866;48.146;17.098;2022-10-16T15:40:02;100271.53;;;24.61
42197;BMP280;27866;48.146;17.098;2022-10-16T15:44:13;100285.78;;;24.38
42197;BMP280;27866;48.146;17.098;2022-10-16T15:48:24;100292.47;;;24.26
42197;BMP280;27866;48.146;17.098;2022-10-16T15:52:35;100303.13;;;23.97
42197;BMP280;27866;48.146;17.098;2022-10-16T15:56:47;100304.56;;;23.70
42197;BMP280;27866;48.146;17.098;2022-10-16T16:00:59;100317.53;;;23.50
42197;BMP280;27866;48.146;17.098;2022-10-16T16:05:15;100311.28;;;23.35
42197;BMP280;27866;48.146;17.098;2022-10-16T16:09:26;100313.00;;;23.21
42197;BMP280;27866;48.146;17.098;2022-10-16T16:13:39;100335.81;;;22.98
42197;BMP280;27866;48.146;17.098;2022-10-16T16:17:51;100331.03;;;22.71
42197;BMP280;27866;48.146;17.098;2022-10-16T16:22:02;100329.69;;;22.36
42197;BMP280;27866;48.146;17.098;2022-10-16T16:26:24;100323.06;;;22.09
42197;BMP280;27866;48.146;17.098;2022-10-16T16:30:37;100333.91;;;21.91
42197;BMP280;27866;48.146;17.098;2022-10-16T16:34:48;100340.16;;;21.82
42197;BMP280;27866;48.146;17.098;2022-10-16T16:38:59;100345.31;;;21.66
42197;BMP280;27866;48.146;17.098;2022-10-16T16:43:10;100351.03;;;21.54
42197;BMP280;27866;48.146;17.098;2022-10-16T16:47:21;100359.38;;;21.50
42197;BMP280;27866;48.146;17.098;2022-10-16T16:51:33;100360.50;;;21.40
42197;BMP280;27866;48.146;17.098;2022-10-16T16:55:44;100373.56;;;21.49
42197;BMP280;27866;48.146;17.098;2022-10-16T16:59:55;100375.69;;;21.46
42197;BMP280;27866;48.146;17.098;2022-10-16T17:04:07;100382.28;;;21.42
42197;BMP280;27866;48.146;17.098;2022-10-16T17:08:18;100393.06;;;21.31
42197;BMP280;27866;48.146;17.098;2022-10-16T17:12:29;100398.59;;;21.20
42197;BMP280;27866;48.146;17.098;2022-10-16T17:16:42;100400.25;;;21.21
42197;BMP280;27866;48.146;17.098;2022-10-16T17:20:54;100407.28;;;21.13
42197;BMP280;27866;48.146;17.098;2022-10-16T17:25:09;100410.59;;;21.15
42197;BMP280;27866;48.146;17.098;2022-10-16T17:29:20;100411.34;;;21.08
42197;BMP280;27866;48.146;17.098;2022-10-16T17:33:31;100418.41;;;21.07
42197;BMP280;27866;48.146;17.098;2022-10-16T17:37:42;100425.13;;;21.02
42197;BMP280;27866;48.146;17.098;2022-10-16T17:41:53;100421.31;;;20.97
42197;BMP280;27866;48.146;17.098;2022-10-16T17:46:06;100436.19;;;20.89
42197;BMP280;27866;48.146;17.098;2022-10-16T17:50:18;100450.72;;;20.75
42197;BMP280;27866;48.146;17.098;2022-10-16T17:54:29;100446.19;;;20.68
42197;BMP280;27866;48.146;17.098;2022-10-16T17:58:40;100453.50;;;20.57
42197;BMP280;27866;48.146;17.098;2022-10-16T18:02:52;100459.34;;;20.51
42197;BMP280;27866;48.146;17.098;2022-10-16T18:07:03;100468.78;;;20.45
42197;BMP280;27866;48.146;17.098;2022-10-16T18:11:14;100474.66;;;20.39
42197;BMP280;27866;48.146;17.098;2022-10-16T18:15:25;100485.66;;;20.34
42197;BMP280;27866;48.146;17.098;2022-10-16T18:19:36;100487.19;;;20.28
42197;BMP280;27866;48.146;17.098;2022-10-16T18:23:48;100484.19;;;20.23
42197;BMP280;27866;48.146;17.098;2022-10-16T18:27:59;100482.78;;;20.19
42197;BMP280;27866;48.146;17.098;2022-10-16T18:32:10;100498.88;;;20.07
42197;BMP280;27866;48.146;17.098;2022-10-16T18:36:27;100506.41;;;20.02
42197;BMP280;27866;48.146;17.098;2022-10-16T18:40:39;100506.16;;;19.96
42197;BMP280;27866;48.146;17.098;2022-10-16T18:44:50;100505.06;;;19.89
42197;BMP280;27866;48.146;17.098;2022-10-16T18:49:02;100517.81;;;19.84
42197;BMP280;27866;48.146;17.098;2022-10-16T18:53:14;100511.75;;;19.74
42197;BMP280;27866;48.146;17.098;2022-10-16T18:57:27;100524.19;;;19.73
42197;BMP280;27866;48.146;17.098;2022-10-16T19:01:39;100528.53;;;19.64
42197;BMP280;27866;48.146;17.098;2022-10-16T19:05:52;100543.34;;;19.56
42197;BMP280;27866;48.146;17.098;2022-10-16T19:10:04;100540.31;;;19.51
42197;BMP280;27866;48.146;17.098;2022-10-16T19:14:16;100541.56;;;19.38
42197;BMP280;27866;48.146;17.098;2022-10-16T19:18:28;100540.03;;;19.27
42197;BMP280;27866;48.146;17.098;2022-10-16T19:22:40;100552.88;;;19.20
42197;BMP280;27866;48.146;17.098;2022-10-16T19:27:04;100543.50;;;19.09
42197;BMP280;27866;48.146;17.098;2022-10-16T19:31:19;100549.97;;;19.05
42197;BMP280;27866;48.146;17.098;2022-10-16T19:35:31;100559.66;;;18.95
42197;BMP280;27866;48.146;17.098;2022-10-16T19:39:43;100567.13;;;18.90
42197;BMP280;27866;48.146;17.098;2022-10-16T19:43:54;100577.06;;;18.87
42197;BMP280;27866;48.146;17.098;2022-10-16T19:48:05;100583.81;;;18.80
42197;BMP280;27866;48.146;17.098;2022-10-16T19:52:16;100580.22;;;18.72
42197;BMP280;27866;48.146;17.098;2022-10-16T19:56:30;100581.44;;;18.68
42197;BMP280;27866;48.146;17.098;2022-10-16T20:00:42;100587.66;;;18.67
42197;BMP280;27866;48.146;17.098;2022-10-16T20:04:53;100601.84;;;18.65
42197;BMP280;27866;48.146;17.098;2022-10-16T20:09:04;100604.91;;;18.60
42197;BMP280;27866;48.146;17.098;2022-10-16T20:13:16;100610.41;;;18.57
42197;BMP280;27866;48.146;17.098;2022-10-16T20:17:27;100612.81;;;18.50
42197;BMP280;27866;48.146;17.098;2022-10-16T20:21:38;100626.06;;;18.48
42197;BMP280;27866;48.146;17.098;2022-10-16T20:25:50;100626.75;;;18.41
42197;BMP280;27866;48.146;17.098;2022-10-16T20:30:02;100626.44;;;18.35
42197;BMP280;27866;48.146;17.098;2022-10-16T20:34:13;100632.91;;;18.31
42197;BMP280;27866;48.146;17.098;2022-10-16T20:38:24;100642.81;;;18.27
42197;BMP280;27866;48.146;17.098;2022-10-16T20:42:36;100639.81;;;18.32
42197;BMP280;27866;48.146;17.098;2022-10-16T20:46:47;100638.97;;;18.31
42197;BMP280;27866;48.146;17.098;2022-10-16T20:50:58;100649.47;;;18.31
42197;BMP280;27866;48.146;17.098;2022-10-16T20:55:10;100664.50;;;18.29
42197;BMP280;27866;48.146;17.098;2022-10-16T20:59:21;100666.69;;;18.25
42197;BMP280;27866;48.146;17.098;2022-10-16T21:03:32;100666.25;;;18.20
42197;BMP280;27866;48.146;17.098;2022-10-16T21:07:43;100668.44;;;18.15
42197;BMP280;27866;48.146;17.098;2022-10-16T21:11:54;100670.34;;;18.13
42197;BMP280;27866;48.146;17.098;2022-10-16T21:16:06;100682.06;;;18.09
42197;BMP280;27866;48.146;17.098;2022-10-16T21:20:17;100681.50;;;18.06
42197;BMP280;27866;48.146;17.098;2022-10-16T21:24:29;100679.50;;;17.98
42197;BMP280;27866;48.146;17.098;2022-10-16T21:28:40;100677.41;;;17.93
42197;BMP280;27866;48.146;17.098;2022-10-16T21:32:51;100673.38;;;17.89
42197;BMP280;27866;48.146;17.098;2022-10-16T21:37:02;100679.44;;;17.89
42197;BMP280;27866;48.146;17.098;2022-10-16T21:41:25;100684.81;;;17.88
42197;BMP280;27866;48.146;17.098;2022-10-16T21:45:37;100675.16;;;17.88
42197;BMP280;27866;48.146;17.098;2022-10-16T21:49:48;100683.16;;;17.87
42197;BMP280;27866;48.146;17.098;2022-10-16T21:54:01;100692.22;;;17.83
42197;BMP280;27866;48.146;17.098;2022-10-16T21:58:12;100704.72;;;17.80
42197;BMP280;27866;48.146;17.098;2022-10-16T22:02:23;100699.88;;;17.75
42197;BMP280;27866;48.146;17.098;2022-10-16T22:06:34;100700.13;;;17.72
42197;BMP280;27866;48.146;17.098;2022-10-16T22:10:45;100698.69;;;17.68
42197;BMP280;27866;48.146;17.098;2022-10-16T22:14:56;100705.84;;;17.67
42197;BMP280;27866;48.146;17.098;2022-10-16T22:19:08;100700.59;;;17.67
42197;BMP280;27866;48.146;17.098;2022-10-16T22:23:20;100711.56;;;17.61
42197;BMP280;27866;48.146;17.098;2022-10-16T22:27:31;100718.00;;;17.57
42197;BMP280;27866;48.146;17.098;2022-10-16T22:31:43;100714.59;;;17.56
42197;BMP280;27866;48.146;17.098;2022-10-16T22:35:54;100707.34;;;17.49
42197;BMP280;27866;48.146;17.098;2022-10-16T22:40:06;100732.22;;;17.44
42197;BMP280;27866;48.146;17.098;2022-10-16T22:44:17;100712.25;;;17.43
42197;BMP280;27866;48.146;17.098;2022-10-16T22:48:28;100710.97;;;17.38
42197;BMP280;27866;48.146;17.098;2022-10-16T22:52:39;100720.72;;;17.36
42197;BMP280;27866;48.146;17.098;2022-10-16T22:56:51;100731.69;;;17.30
42197;BMP280;27866;48.146;17.098;2022-10-16T23:01:14;100731.81;;;17.28
42197;BMP280;27866;48.146;17.098;2022-10-16T23:05:26;100733.13;;;17.23
42197;BMP280;27866;48.146;17.098;2022-10-16T23:09:37;100739.56;;;17.19
42197;BMP280;27866;48.146;17.098;2022-10-16T23:13:48;100736.47;;;17.14
42197;BMP280;27866;48.146;17.098;2022-10-16T23:17:59;100743.50;;;17.14
42197;BMP280;27866;48.146;17.098;2022-10-16T23:22:10;100748.84;;;17.12
42197;BMP280;27866;48.146;17.098;2022-10-16T23:26:24;100753.38;;;17.11
42197;BMP280;27866;48.146;17.098;2022-10-16T23:30:37;100750.31;;;17.06
42197;BMP280;27866;48.146;17.098;2022-10-16T23:34:48;100747.91;;;17.03
42197;BMP280;27866;48.146;17.098;2022-10-16T23:38:59;100745.16;;;17.04
42197;BMP280;27866;48.146;17.098;2022-10-16T23:43:10;100748.88;;;17.02
42197;BMP280;27866;48.146;17.098;2022-10-16T23:47:21;100750.06;;;16.98
42197;BMP280;27866;48.146;17.098;2022-10-16T23:51:32;100738.19;;;16.94
42197;BMP280;27866;48.146;17.098;2022-10-16T23:55:43;100731.25;;;16.93
42197;BMP280;27866;48.146;17.098;2022-10-16T23:59:54;100743.63;;;16.91
